Time;durP1;ratioP1;P1;durP2;ratioP2;P2;SDS_P1;SDS_P2;PMS_P1;PMS_P2;Temp;Humidity;BMP_temperature;BMP_pressure;BME280_temperature;BME280_humidity;BME280_pressure;Samples;Min_cycle;Max_cycle;Signal;HPM_P1;HPM_P2
2024/01/25 00:00:49;;;;;;;20.70;3.72;;;;;;;8.48;100.00;101977.69;6353347;28;20059;-77
2024/01/25 00:03:50;;;;;;;16.95;2.05;;;;;;;8.51;100.00;101975.88;6353049;28;20054;-75
2024/01/25 00:06:52;;;;;;;19.90;2.20;;;;;;;8.58;100.00;101972.22;6352765;28;20451;-75
2024/01/25 00:09:54;;;;;;;23.10;2.63;;;;;;;8.63;100.00;101974.72;6353153;28;20052;-76
2024/01/25 00:12:55;;;;;;;24.42;3.60;;;;;;;8.67;100.00;101968.47;6352919;28;20059;-74
2024/01/25 00:15:57;;;;;;;22.55;3.30;;;;;;;8.68;100.00;101961.50;6351288;28;20043;-75
2024/01/25 00:18:58;;;;;;;20.92;2.42;;;;;;;8.54;100.00;101965.31;6353090;28;20443;-75
2024/01/25 00:22:00;;;;;;;20.13;2.42;;;;;;;8.48;100.00;101957.59;6352712;28;20350;-75
2024/01/25 00:25:02;;;;;;;12.70;2.45;;;;;;;8.64;100.00;101968.56;6353032;22;20044;-71
2024/01/25 00:28:04;;;;;;;18.98;2.97;;;;;;;8.70;100.00;101978.03;6309773;28;20474;-71
2024/01/25 00:31:05;;;;;;;20.85;2.05;;;;;;;8.70;100.00;101973.63;6318438;28;20052;-71
2024/01/25 00:34:07;;;;;;;30.88;3.50;;;;;;;8.68;100.00;101982.47;6326513;28;20052;-70
2024/01/25 00:37:10;;;;;;;21.63;3.88;;;;;;;8.59;100.00;101978.31;6326899;28;20051;-69
2024/01/25 00:40:13;;;;;;;15.10;1.77;;;;;;;8.62;100.00;101992.16;6327529;28;20181;-71
2024/01/25 00:43:15;;;;;;;21.67;2.63;;;;;;;8.55;100.00;101987.13;6326855;28;20135;-70
2024/01/25 00:46:17;;;;;;;15.50;2.10;;;;;;;8.52;100.00;101987.22;6326738;28;20043;-69
2024/01/25 00:49:19;;;;;;;19.05;2.28;;;;;;;8.53;100.00;101986.31;6326905;28;20333;-70
2024/01/25 00:52:21;;;;;;;16.13;2.38;;;;;;;8.55;100.00;101987.13;6319492;28;20437;-69
2024/01/25 00:55:24;;;;;;;19.15;2.15;;;;;;;8.49;100.00;101990.75;6320493;28;20044;-70
2024/01/25 00:58:26;;;;;;;22.38;3.00;;;;;;;8.48;100.00;101977.69;6318304;28;20053;-70
2024/01/25 01:01:28;;;;;;;11.40;1.35;;;;;;;8.24;100.00;101979.13;6318401;28;20044;-70
2024/01/25 01:04:30;;;;;;;14.93;2.22;;;;;;;8.37;100.00;101978.84;6326341;28;20048;-70
2024/01/25 01:07:32;;;;;;;23.90;2.00;;;;;;;8.39;100.00;101986.63;6326030;28;20044;-70
2024/01/25 01:10:34;;;;;;;17.05;2.42;;;;;;;8.39;100.00;101982.25;6326430;28;20535;-71
2024/01/25 01:13:36;;;;;;;19.55;2.50;;;;;;;8.34;100.00;101986.72;6325465;28;20044;-71
2024/01/25 01:16:37;;;;;;;9.50;2.42;;;;;;;8.36;100.00;101990.22;6325660;28;20467;-71
2024/01/25 01:19:38;;;;;;;12.50;2.28;;;;;;;8.34;100.00;101996.34;6326548;28;20055;-70
2024/01/25 01:22:40;;;;;;;19.23;3.25;;;;;;;8.46;100.00;101998.72;6326048;28;20071;-70
2024/01/25 01:25:42;;;;;;;19.20;2.53;;;;;;;8.36;100.00;101998.06;6326229;28;20040;-71
2024/01/25 01:28:44;;;;;;;26.15;3.20;;;;;;;8.35;100.00;102013.78;6325647;28;20052;-71
2024/01/25 01:31:45;;;;;;;31.52;3.10;;;;;;;8.32;100.00;102013.88;6326321;28;20058;-71
2024/01/25 01:34:46;;;;;;;20.48;3.40;;;;;;;8.28;100.00;102010.44;6325845;28;20437;-70
2024/01/25 01:37:48;;;;;;;15.32;1.80;;;;;;;8.32;100.00;102019.09;6325330;28;20044;-70
2024/01/25 01:40:50;;;;;;;21.67;2.08;;;;;;;8.33;100.00;102020.81;6326025;28;20436;-71
2024/01/25 01:43:53;;;;;;;17.38;2.80;;;;;;;8.20;100.00;102011.53;6325244;28;20052;-71
2024/01/25 01:46:55;;;;;;;22.75;2.92;;;;;;;8.41;100.00;102008.44;6325255;28;20051;-70
2024/01/25 01:49:56;;;;;;;17.30;3.00;;;;;;;8.30;100.00;102010.41;6325590;28;20054;-71
2024/01/25 01:52:57;;;;;;;17.50;3.00;;;;;;;8.27;100.00;102018.34;6325403;28;20055;-71
2024/01/25 01:56:00;;;;;;;13.98;2.03;;;;;;;8.30;100.00;102037.44;6325216;28;20047;-71
2024/01/25 01:59:03;;;;;;;16.98;2.17;;;;;;;8.27;100.00;102031.44;6325716;28;20055;-71
2024/01/25 02:02:04;;;;;;;19.95;3.28;;;;;;;8.18;100.00;102036.91;6325405;28;20051;-70
2024/01/25 02:05:06;;;;;;;31.17;3.97;;;;;;;8.11;100.00;102033.53;6325002;28;20047;-71
2024/01/25 02:08:08;;;;;;;22.65;2.75;;;;;;;8.21;100.00;102031.56;6324746;28;20040;-71
2024/01/25 02:11:13;;;;;;;20.02;2.47;;;;;;;8.17;100.00;102032.53;6325814;28;20055;-70
2024/01/25 02:14:14;;;;;;;21.33;3.45;;;;;;;8.03;100.00;102033.69;6324943;28;20066;-70
2024/01/25 02:17:16;;;;;;;25.90;4.03;;;;;;;8.04;100.00;102021.47;6324659;28;20383;-71
2024/01/25 02:20:19;;;;;;;16.98;3.33;;;;;;;8.04;100.00;102030.22;6325333;28;20059;-71
2024/01/25 02:23:21;;;;;;;11.45;2.17;;;;;;;8.04;100.00;102037.16;6324904;28;20048;-70
2024/01/25 02:26:23;;;;;;;39.22;4.53;;;;;;;8.02;100.00;102036.34;6324468;28;20040;-71
2024/01/25 02:29:24;;;;;;;17.60;1.95;;;;;;;8.04;100.00;102037.16;6325005;28;20066;-71
2024/01/25 02:32:25;;;;;;;21.10;2.40;;;;;;;8.08;100.00;102054.53;6325278;28;20044;-70
2024/01/25 02:35:27;;;;;;;10.85;2.00;;;;;;;8.00;100.00;102036.41;6324695;28;20055;-70
2024/01/25 02:38:29;;;;;;;18.30;2.28;;;;;;;7.98;100.00;102032.94;6324681;28;20048;-70
2024/01/25 02:41:31;;;;;;;21.52;4.32;;;;;;;8.03;100.00;102044.16;6324704;28;20447;-70
2024/01/25 02:44:32;;;;;;;18.92;4.05;;;;;;;7.99;100.00;102052.13;6324437;28;20048;-71
2024/01/25 02:47:34;;;;;;;27.85;3.33;;;;;;;7.99;100.00;102045.13;6324502;28;20048;-70
2024/01/25 02:50:35;;;;;;;22.52;2.78;;;;;;;8.09;100.00;102056.28;6324799;28;20056;-72
2024/01/25 02:53:38;;;;;;;28.42;2.17;;;;;;;7.99;100.00;102067.81;6324728;28;20055;-72
2024/01/25 02:56:39;;;;;;;16.02;2.63;;;;;;;7.78;100.00;102063.94;6327651;28;20059;-71
2024/01/25 02:59:40;;;;;;;20.15;2.75;;;;;;;7.93;100.00;102057.50;6329635;28;20048;-71
2024/01/25 03:02:42;;;;;;;27.25;2.70;;;;;;;7.84;100.00;102058.56;6329187;28;20048;-71
2024/01/25 03:05:43;;;;;;;23.67;2.80;;;;;;;7.80;100.00;102059.50;6329363;28;20353;-71
2024/01/25 03:08:46;;;;;;;15.95;2.53;;;;;;;7.72;100.00;102061.41;6328915;28;20044;-70
2024/01/25 03:11:47;;;;;;;15.55;2.72;;;;;;;7.85;100.00;102073.34;6329618;28;20048;-71
2024/01/25 03:14:49;;;;;;;14.65;3.42;;;;;;;7.95;100.00;102071.41;6308044;28;20460;-72
2024/01/25 03:17:50;;;;;;;31.75;3.08;;;;;;;7.96;100.00;102081.00;6303789;28;20345;-72
2024/01/25 03:20:52;;;;;;;19.75;2.25;;;;;;;7.85;100.00;102087.28;6304003;28;20048;-70
2024/01/25 03:23:54;;;;;;;28.27;2.60;;;;;;;7.94;100.00;102088.00;6303535;28;20456;-71
2024/01/25 03:26:56;;;;;;;23.48;2.75;;;;;;;8.05;100.00;102094.75;6303065;28;20044;-71
2024/01/25 03:29:58;;;;;;;22.27;3.63;;;;;;;8.06;100.00;102117.41;6303331;28;20052;-71
2024/01/25 03:32:59;;;;;;;19.63;2.45;;;;;;;7.98;100.00;102093.16;6303514;28;20051;-71
2024/01/25 03:36:03;;;;;;;14.00;2.40;;;;;;;7.96;100.00;102089.72;6303072;28;20421;-72
2024/01/25 03:39:05;;;;;;;16.88;2.42;;;;;;;7.77;100.00;102104.94;6304477;28;20061;-70
2024/01/25 03:42:07;;;;;;;18.35;3.05;;;;;;;7.93;100.00;102099.38;6305490;28;20055;-70
2024/01/25 03:45:09;;;;;;;22.45;2.95;;;;;;;7.83;100.00;102106.56;6305138;28;20573;-71
2024/01/25 03:48:10;;;;;;;15.23;2.35;;;;;;;7.93;100.00;102100.22;6303408;28;20048;-70
2024/01/25 03:51:11;;;;;;;20.20;2.65;;;;;;;7.76;100.00;102104.94;6303507;28;20052;-72
2024/01/25 03:54:14;;;;;;;23.10;2.88;;;;;;;7.82;100.00;102115.31;6303094;28;20048;-72
2024/01/25 03:57:15;;;;;;;13.65;2.22;;;;;;;7.92;100.00;102111.59;6300734;28;20721;-72
2024/01/25 04:00:17;;;;;;;25.35;4.03;;;;;;;7.71;100.00;102104.19;6315258;28;20059;-72
2024/01/25 04:03:18;;;;;;;15.98;3.03;;;;;;;7.82;100.00;102120.53;6312839;28;20432;-72
2024/01/25 04:06:20;;;;;;;29.33;3.63;;;;;;;7.76;100.00;102112.78;6310583;28;20048;-69
2024/01/25 04:09:22;;;;;;;23.92;2.13;;;;;;;7.76;100.00;102111.03;6321267;28;20051;-72
2024/01/25 04:12:25;;;;;;;18.42;2.33;;;;;;;7.73;100.00;102112.88;6315782;28;20053;-70
2024/01/25 04:15:26;;;;;;;27.20;2.33;;;;;;;7.72;100.00;102135.56;6312943;28;20064;-72
2024/01/25 04:18:27;;;;;;;8.60;1.52;;;;;;;7.74;100.00;102139.00;6327540;28;20047;-72
2024/01/25 04:21:29;;;;;;;14.75;2.13;;;;;;;7.63;100.00;102130.50;6327765;28;20052;-72
2024/01/25 04:24:31;;;;;;;20.25;2.38;;;;;;;7.55;100.00;102140.25;6327226;28;20432;-71
2024/01/25 04:27:33;;;;;;;20.58;2.08;;;;;;;7.72;100.00;102143.41;6327654;28;20047;-72
2024/01/25 04:30:34;;;;;;;12.00;2.28;;;;;;;7.73;100.00;102133.81;6325384;28;20052;-70
2024/01/25 04:33:35;;;;;;;29.77;2.70;;;;;;;7.65;100.00;102128.72;6313729;28;20580;-71
2024/01/25 04:36:37;;;;;;;22.63;2.50;;;;;;;7.67;100.00;102149.59;6327172;28;20048;-71
2024/01/25 04:39:39;;;;;;;20.67;2.85;;;;;;;7.55;100.00;102155.94;6327404;28;20074;-71
2024/01/25 04:42:41;;;;;;;24.75;3.13;;;;;;;7.60;100.00;102148.88;6327200;28;20048;-71
2024/01/25 04:45:42;;;;;;;20.67;1.98;;;;;;;7.74;100.00;102144.22;6327306;28;20059;-71
2024/01/25 04:48:43;;;;;;;30.05;4.07;;;;;;;7.46;100.00;102143.88;6317945;28;20455;-71
2024/01/25 04:51:45;;;;;;;18.52;3.05;;;;;;;7.55;100.00;102156.81;6323703;28;20048;-71
2024/01/25 04:54:47;;;;;;;19.60;3.17;;;;;;;7.60;100.00;102144.50;6326577;28;20054;-72
2024/01/25 04:57:53;;;;;;;18.08;2.90;;;;;;;7.45;100.00;102139.56;6326827;28;20040;-71
2024/01/25 05:00:55;;;;;;;18.88;2.97;;;;;;;7.49;100.00;102142.94;6327022;28;20145;-72
2024/01/25 05:03:56;;;;;;;14.88;2.90;;;;;;;7.51;100.00;102157.75;6326842;28;20048;-71
2024/01/25 05:06:58;;;;;;;21.23;1.83;;;;;;;7.53;100.00;102148.09;6326036;28;20048;-71
2024/01/25 05:10:00;;;;;;;19.80;2.88;;;;;;;7.65;100.00;102156.63;6326513;28;20047;-71
2024/01/25 05:13:02;;;;;;;26.15;2.78;;;;;;;7.41;100.00;102176.25;6326362;28;20071;-71
2024/01/25 05:16:03;;;;;;;18.33;2.10;;;;;;;7.45;100.00;102168.31;6326207;28;20052;-71
2024/01/25 05:19:05;;;;;;;11.60;2.80;;;;;;;7.47;100.00;102179.59;6326033;28;20048;-71
2024/01/25 05:22:07;;;;;;;19.88;3.25;;;;;;;7.49;100.00;102175.19;6326261;28;20055;-71
2024/01/25 05:25:10;;;;;;;21.77;2.10;;;;;;;7.48;100.00;102185.69;6325772;28;20056;-71
2024/01/25 05:28:11;;;;;;;23.80;2.47;;;;;;;7.52;100.00;102174.28;6325812;28;20044;-70
2024/01/25 05:31:13;;;;;;;25.50;2.50;;;;;;;7.39;100.00;102178.88;6326503;28;20052;-70
2024/01/25 05:34:14;;;;;;;28.77;3.05;;;;;;;7.47;100.00;102179.59;6325807;28;20139;-70
2024/01/25 05:37:15;;;;;;;16.98;2.45;;;;;;;7.32;100.00;102179.88;6325655;28;20096;-71
2024/01/25 05:40:19;;;;;;;29.75;2.50;;;;;;;7.41;100.00;102173.63;6325853;28;20555;-71
2024/01/25 05:43:20;;;;;;;22.35;3.65;;;;;;;7.37;100.00;102180.66;6325746;28;20044;-71
2024/01/25 05:46:22;;;;;;;18.63;3.60;;;;;;;7.44;100.00;102178.78;6325238;28;20447;-71
2024/01/25 05:49:23;;;;;;;18.63;2.10;;;;;;;7.43;100.00;102187.53;6325523;28;20044;-71
2024/01/25 05:52:24;;;;;;;21.10;2.80;;;;;;;7.38;100.00;102198.06;6325622;28;20051;-71
2024/01/25 05:55:27;;;;;;;20.38;1.98;;;;;;;7.36;100.00;102194.63;6325037;28;20048;-71
2024/01/25 05:58:28;;;;;;;12.60;2.00;;;;;;;7.36;100.00;102202.47;6311962;28;20052;-71
2024/01/25 06:01:30;;;;;;;11.70;2.88;;;;;;;7.32;100.00;102213.88;6313309;28;20058;-71
2024/01/25 06:04:31;;;;;;;20.58;2.22;;;;;;;7.29;100.00;102217.38;6319585;28;20059;-71
2024/01/25 06:07:32;;;;;;;22.50;3.03;;;;;;;7.34;100.00;102228.63;6324843;28;20047;-71
2024/01/25 06:10:35;;;;;;;20.58;1.75;;;;;;;7.19;100.00;102223.66;6325542;28;20072;-71
2024/01/25 06:13:36;;;;;;;18.77;2.28;;;;;;;7.15;100.00;102221.97;6324983;28;20066;-70
2024/01/25 06:16:38;;;;;;;16.35;2.20;;;;;;;7.23;100.00;102229.72;6323245;28;20044;-71
2024/01/25 06:19:39;;;;;;;21.38;2.47;;;;;;;7.23;100.00;102234.94;6312190;28;20040;-71
2024/01/25 06:22:40;;;;;;;23.58;2.40;;;;;;;7.14;100.00;102240.31;6324800;28;20059;-71
2024/01/25 06:25:43;;;;;;;21.50;2.83;;;;;;;7.15;100.00;102244.66;6325255;28;20052;-71
2024/01/25 06:28:45;;;;;;;24.95;2.53;;;;;;;7.28;100.00;102251.41;6346426;22;20131;-75
2024/01/25 06:31:47;;;;;;;17.65;2.47;;;;;;;7.14;100.00;102258.59;6350069;28;20435;-75
2024/01/25 06:34:48;;;;;;;22.58;2.13;;;;;;;7.23;100.00;102248.88;6355609;28;20475;-74
2024/01/25 06:37:49;;;;;;;14.77;1.75;;;;;;;7.19;100.00;102256.78;6355062;28;20047;-75
2024/01/25 06:40:52;;;;;;;20.23;2.25;;;;;;;6.98;100.00;102250.09;6355353;28;20051;-76
2024/01/25 06:43:54;;;;;;;13.23;2.40;;;;;;;7.00;100.00;102257.06;6355078;28;20062;-75
2024/01/25 06:46:55;;;;;;;21.75;3.33;;;;;;;6.96;100.00;102265.81;6354723;28;20157;-75
2024/01/25 06:49:56;;;;;;;23.95;2.85;;;;;;;7.03;100.00;102261.34;6355602;28;20062;-75
2024/01/25 06:52:58;;;;;;;16.92;3.72;;;;;;;6.96;100.00;102265.81;6346438;28;20051;-75
2024/01/25 06:56:00;;;;;;;22.65;3.00;;;;;;;7.09;100.00;102284.81;6315749;28;20048;-75
2024/01/25 06:59:02;;;;;;;24.52;2.92;;;;;;;7.07;100.00;102286.56;6304349;28;20049;-75
2024/01/25 07:02:03;;;;;;;20.02;3.03;;;;;;;7.02;100.00;102283.16;6306552;28;20062;-74
2024/01/25 07:05:05;;;;;;;12.68;2.15;;;;;;;6.99;100.00;102283.19;6315117;28;20048;-76
2024/01/25 07:08:08;;;;;;;14.30;2.05;;;;;;;7.21;100.00;102291.59;6316790;28;20055;-75
2024/01/25 07:11:11;;;;;;;24.92;3.03;;;;;;;7.09;100.00;102285.69;6322227;28;20052;-76
2024/01/25 07:14:13;;;;;;;22.25;3.20;;;;;;;7.15;100.00;102283.84;6315779;28;20054;-75
2024/01/25 07:17:14;;;;;;;14.63;2.28;;;;;;;7.06;100.00;102279.63;6317529;28;20067;-75
2024/01/25 07:20:15;;;;;;;26.42;2.78;;;;;;;7.17;100.00;102282.94;6318956;28;20044;-76
2024/01/25 07:23:18;;;;;;;22.08;2.55;;;;;;;6.97;100.00;102295.44;6317916;28;20048;-75
2024/01/25 07:26:21;;;;;;;30.45;3.90;;;;;;;7.11;100.00;102290.88;6318390;28;20078;-75
2024/01/25 07:29:22;;;;;;;18.40;2.97;;;;;;;7.17;100.00;102296.00;6323334;28;20036;-75
2024/01/25 07:32:24;;;;;;;24.90;3.13;;;;;;;7.10;100.00;102295.25;6326748;28;20048;-75
2024/01/25 07:35:26;;;;;;;20.13;2.83;;;;;;;7.21;100.00;102302.91;6317156;28;20074;-75
2024/01/25 07:38:27;;;;;;;33.03;3.13;;;;;;;7.12;100.00;102306.53;6317668;28;20048;-75
2024/01/25 07:41:30;;;;;;;24.83;2.25;;;;;;;7.20;100.00;102305.56;6307149;28;20044;-75
2024/01/25 07:44:31;;;;;;;22.25;3.35;;;;;;;7.08;100.00;102307.44;6315546;28;20048;-76
2024/01/25 07:47:32;;;;;;;14.75;1.90;;;;;;;7.06;100.00;102311.00;6311069;28;20356;-75
2024/01/25 07:50:33;;;;;;;23.83;3.63;;;;;;;7.02;100.00;102309.31;6314889;28;20040;-75
2024/01/25 07:53:35;;;;;;;29.83;4.90;;;;;;;7.12;100.00;102316.97;6319714;28;20055;-74
2024/01/25 07:56:37;;;;;;;19.23;3.58;;;;;;;7.10;100.00;102325.75;6315703;28;20123;-74
2024/01/25 07:59:39;;;;;;;20.23;3.45;;;;;;;7.11;100.00;102322.25;6317304;28;20044;-74
2024/01/25 08:02:41;;;;;;;28.88;2.97;;;;;;;7.16;100.00;102325.66;6323331;28;20055;-73
2024/01/25 08:05:44;;;;;;;22.15;2.60;;;;;;;7.15;100.00;102336.16;6328012;28;20051;-75
2024/01/25 08:08:45;;;;;;;30.98;3.47;;;;;;;7.19;100.00;102337.84;6316964;28;20067;-75
2024/01/25 08:11:47;;;;;;;15.70;2.13;;;;;;;7.11;100.00;102338.78;6302843;28;20354;-75
2024/01/25 08:14:49;;;;;;;29.02;3.13;;;;;;;7.05;100.00;102338.88;6302657;28;20056;-74
2024/01/25 08:17:50;;;;;;;33.83;3.58;;;;;;;7.14;100.00;102340.50;6302358;28;20044;-73
2024/01/25 08:20:51;;;;;;;18.75;2.55;;;;;;;7.08;100.00;102337.97;6302364;28;20349;-74
2024/01/25 08:23:53;;;;;;;19.35;2.63;;;;;;;7.06;100.00;102335.38;6302382;28;20056;-74
2024/01/25 08:26:55;;;;;;;22.42;2.45;;;;;;;7.04;100.00;102331.94;6320355;28;20051;-74
2024/01/25 08:29:57;;;;;;;17.08;3.63;;;;;;;7.09;100.00;102340.56;6314894;28;20416;-73
2024/01/25 08:32:58;;;;;;;25.77;3.97;;;;;;;6.98;100.00;102347.66;6312478;28;20056;-74
2024/01/25 08:36:00;;;;;;;30.60;3.45;;;;;;;7.17;100.00;102350.91;6310341;28;20433;-75
2024/01/25 08:39:01;;;;;;;26.80;2.88;;;;;;;7.17;100.00;102353.53;6309516;28;20049;-72
2024/01/25 08:42:06;;;;;;;26.95;3.58;;;;;;;7.09;100.00;102344.94;6322713;28;20044;-74
2024/01/25 08:45:08;;;;;;;27.33;3.65;;;;;;;7.18;100.00;102357.03;6326838;28;20463;-74
2024/01/25 08:48:10;;;;;;;24.00;2.65;;;;;;;7.23;100.00;102352.59;6326370;28;20080;-73
2024/01/25 08:51:11;;;;;;;17.52;3.22;;;;;;;7.26;100.00;102366.47;6326950;28;20044;-73
2024/01/25 08:54:13;;;;;;;25.10;3.58;;;;;;;7.19;100.00;102379.66;6325872;28;20051;-74
2024/01/25 08:57:16;;;;;;;21.17;2.33;;;;;;;7.18;100.00;102383.19;6326346;28;20396;-74
2024/01/25 09:00:18;;;;;;;19.60;2.60;;;;;;;7.26;100.00;102382.16;6326583;28;20059;-74
2024/01/25 09:03:19;;;;;;;23.05;3.25;;;;;;;7.36;100.00;102383.78;6321704;28;20087;-74
2024/01/25 09:06:21;;;;;;;16.25;2.83;;;;;;;7.35;100.00;102386.41;6309242;28;20393;-73
2024/01/25 09:09:23;;;;;;;19.80;4.22;;;;;;;7.16;100.00;102382.31;6301502;28;20047;-74
2024/01/25 09:12:25;;;;;;;18.63;2.45;;;;;;;7.03;100.00;102392.91;6301367;28;20055;-73
2024/01/25 09:15:27;;;;;;;19.08;3.08;;;;;;;7.10;100.00;102396.34;6301167;28;20057;-74
2024/01/25 09:18:28;;;;;;;8.60;2.72;;;;;;;7.35;100.00;102402.97;6300333;28;20342;-74
2024/01/25 09:21:30;;;;;;;33.10;3.42;;;;;;;7.29;100.00;102408.28;6300941;28;20056;-75
2024/01/25 09:24:33;;;;;;;30.98;3.25;;;;;;;7.23;100.00;102415.34;6301033;28;20052;-74
2024/01/25 09:27:36;;;;;;;19.08;3.08;;;;;;;7.10;100.00;102415.50;6300792;28;20081;-75
2024/01/25 09:30:38;;;;;;;25.63;3.65;;;;;;;7.24;100.00;102412.72;6309569;28;20047;-75
2024/01/25 09:33:39;;;;;;;19.48;3.22;;;;;;;7.28;100.00;102413.53;6305666;28;20054;-74
2024/01/25 09:36:41;;;;;;;19.48;2.67;;;;;;;7.35;100.00;102423.03;6307183;28;20055;-74
2024/01/25 09:39:42;;;;;;;12.20;3.05;;;;;;;7.41;100.00;102416.88;6308899;28;20349;-73
2024/01/25 09:42:45;;;;;;;26.10;3.10;;;;;;;7.28;100.00;102421.38;6310857;28;20048;-75
2024/01/25 09:45:53;;;;;;;21.00;3.70;;;;;;;7.27;100.00;102422.28;6315681;28;20047;-75
2024/01/25 09:48:55;;;;;;;17.13;3.65;;;;;;;7.22;100.00;102424.94;6310926;28;20350;-74
2024/01/25 09:51:56;;;;;;;21.95;3.40;;;;;;;7.29;100.00;102428.34;6311336;28;20583;-74
2024/01/25 09:54:58;;;;;;;30.10;3.92;;;;;;;7.21;100.00;102431.03;6314345;28;20049;-74
2024/01/25 09:58:01;;;;;;;28.00;3.67;;;;;;;7.32;100.00;102431.78;6309728;28;20067;-73
2024/01/25 10:01:03;;;;;;;32.30;4.07;;;;;;;7.29;100.00;102442.28;6313341;28;20333;-75
2024/01/25 10:04:07;;;;;;;20.98;3.42;;;;;;;7.12;100.00;102441.59;6325217;28;20058;-75
2024/01/25 10:07:09;;;;;;;19.42;3.03;;;;;;;7.03;100.00;102450.41;6312209;28;20048;-75
2024/01/25 10:10:11;;;;;;;18.15;3.05;;;;;;;7.12;100.00;102439.00;6314075;28;20043;-75
2024/01/25 10:13:14;;;;;;;17.55;3.75;;;;;;;7.15;100.00;102445.94;6311289;28;20372;-76
2024/01/25 10:16:17;;;;;;;23.13;2.22;;;;;;;7.27;100.00;102457.13;6309780;28;20048;-74
2024/01/25 10:19:18;;;;;;;21.67;2.35;;;;;;;7.40;100.00;102455.19;6313293;28;20360;-74
2024/01/25 10:22:20;;;;;;;20.02;3.17;;;;;;;7.26;100.00;102455.38;6307684;28;20059;-75
2024/01/25 10:25:21;;;;;;;24.83;3.38;;;;;;;7.17;100.00;102452.00;6297878;28;20072;-75
2024/01/25 10:28:25;;;;;;;27.08;3.30;;;;;;;7.25;100.00;102448.41;6297799;28;20055;-74
2024/01/25 10:31:27;;;;;;;16.73;3.00;;;;;;;7.20;100.00;102454.59;6297302;28;20126;-74
2024/01/25 10:34:30;;;;;;;20.00;3.55;;;;;;;7.20;100.00;102452.84;6298187;28;20059;-74
2024/01/25 10:37:32;;;;;;;24.80;2.92;;;;;;;7.16;100.00;102460.75;6315796;28;20345;-74
2024/01/25 10:40:34;;;;;;;24.13;3.00;;;;;;;6.98;100.00;102456.59;6325604;28;20131;-74
2024/01/25 10:43:37;;;;;;;23.38;3.72;;;;;;;7.05;100.00;102456.50;6324727;28;20052;-75
2024/01/25 10:46:39;;;;;;;27.20;3.08;;;;;;;7.23;100.00;102451.97;6324344;28;20076;-74
2024/01/25 10:49:41;;;;;;;28.83;3.38;;;;;;;7.23;100.00;102459.81;6324747;28;20040;-74
2024/01/25 10:52:44;;;;;;;21.50;3.88;;;;;;;7.22;100.00;102451.09;6324338;28;20044;-74
2024/01/25 10:55:46;;;;;;;20.98;3.67;;;;;;;7.28;100.00;102440.56;6324620;28;20356;-74
2024/01/25 10:58:49;;;;;;;17.05;3.17;;;;;;;7.33;100.00;102428.28;6322991;28;20348;-74
2024/01/25 11:01:51;;;;;;;18.83;2.72;;;;;;;7.22;100.00;102439.75;6299705;28;20056;-75
2024/01/25 11:04:54;;;;;;;28.15;3.67;;;;;;;7.18;100.00;102436.31;6299276;28;20168;-74
2024/01/25 11:07:56;;;;;;;18.38;3.45;;;;;;;7.29;100.00;102430.94;6299139;28;20067;-75
2024/01/25 11:10:58;;;;;;;38.15;4.38;;;;;;;7.38;100.00;102428.22;6299635;28;20056;-74
2024/01/25 11:14:00;;;;;;;26.23;3.47;;;;;;;7.33;100.00;102441.34;6299269;28;20060;-74
2024/01/25 11:17:15;;;;;;;13.35;3.53;;;;;;;7.42;100.00;102440.38;6301328;28;20056;-75
2024/01/25 11:20:20;;;;;;;24.83;4.60;;;;;;;7.30;100.00;102445.75;6313386;28;20048;-74
2024/01/25 11:23:22;;;;;;;18.60;3.97;;;;;;;7.43;100.00;102438.63;6311250;28;20044;-74
2024/01/25 11:26:25;;;;;;;9.82;3.05;;;;;;;7.27;100.00;102438.81;6314591;28;20436;-73
2024/01/25 11:29:28;;;;;;;29.60;3.72;;;;;;;7.40;100.00;102441.25;6310835;28;20041;-74
2024/01/25 11:32:29;;;;;;;23.42;3.67;;;;;;;7.46;100.00;102435.97;6311924;28;20055;-74
2024/01/25 11:35:31;;;;;;;28.52;4.35;;;;;;;7.42;100.00;102432.53;6313074;28;20467;-74
2024/01/25 11:38:32;;;;;;;20.92;2.72;;;;;;;7.57;100.00;102439.31;6317306;28;20078;-74
2024/01/25 11:41:34;;;;;;;22.00;3.65;;;;;;;7.65;100.00;102433.97;6307938;28;20055;-75
2024/01/25 11:44:37;;;;;;;19.05;3.28;;;;;;;7.45;100.00;102439.44;6315936;28;20154;-74
2024/01/25 11:47:39;;;;;;;19.65;3.95;;;;;;;7.39;100.00;102445.63;6311749;28;20044;-75
2024/01/25 11:50:40;;;;;;;23.95;3.10;;;;;;;7.51;100.00;102444.63;6317142;28;20051;-74
2024/01/25 11:53:42;;;;;;;27.17;3.83;;;;;;;7.44;100.00;102430.75;6318883;28;20059;-74
2024/01/25 11:56:43;;;;;;;12.68;2.53;;;;;;;7.35;100.00;102438.72;6327597;28;20360;-74
2024/01/25 11:59:46;;;;;;;43.83;4.38;;;;;;;7.46;100.00;102428.13;6311379;28;20427;-74
2024/01/25 12:02:48;;;;;;;26.38;2.75;;;;;;;7.55;100.00;102423.63;6321981;28;20049;-76
2024/01/25 12:05:50;;;;;;;21.90;3.08;;;;;;;7.70;100.00;102421.69;6316113;28;20055;-76
2024/01/25 12:08:51;;;;;;;25.15;2.95;;;;;;;7.59;100.00;102409.63;6318590;28;20041;-76
2024/01/25 12:11:53;;;;;;;11.23;2.28;;;;;;;7.71;100.00;102405.09;6315234;28;20048;-76
2024/01/25 12:14:59;;;;;;;17.33;2.90;;;;;;;7.85;100.00;102416.22;6315837;28;20044;-76
2024/01/25 12:18:01;;;;;;;12.82;3.15;;;;;;;7.59;100.00;102412.25;6312772;28;20048;-74
2024/01/25 12:21:04;;;;;;;13.07;2.95;;;;;;;7.71;100.00;102411.19;6313298;28;20361;-76
2024/01/25 12:24:08;;;;;;;26.95;3.47;;;;;;;7.56;100.00;102417.50;6315070;28;20107;-74
2024/01/25 12:27:10;;;;;;;21.58;4.07;;;;;;;7.66;100.00;102418.25;6313046;28;20045;-76
2024/01/25 12:30:14;;;;;;;16.90;2.30;;;;;;;7.55;100.00;102421.00;6328897;22;20041;-71
2024/01/25 12:33:15;;;;;;;20.67;3.30;;;;;;;7.54;100.00;102421.00;6304035;28;20048;-71
2024/01/25 12:36:16;;;;;;;25.17;3.60;;;;;;;7.57;100.00;102415.75;6301152;28;20048;-70
2024/01/25 12:39:18;;;;;;;18.05;2.55;;;;;;;7.66;100.00;102410.38;6291294;28;20052;-71
2024/01/25 12:42:20;;;;;;;14.98;2.65;;;;;;;7.81;100.00;102417.13;6301796;28;20052;-71
2024/01/25 12:45:23;;;;;;;22.27;2.00;;;;;;;7.93;100.00;102429.19;6293658;28;20056;-71
2024/01/25 12:48:24;;;;;;;19.17;2.40;;;;;;;7.94;100.00;102415.22;6301283;28;20053;-71
2024/01/25 12:51:26;;;;;;;14.98;2.53;;;;;;;7.94;100.00;102413.44;6307661;28;20107;-72
2024/01/25 12:54:28;;;;;;;31.35;3.30;;;;;;;8.01;100.00;102409.88;6310957;28;20056;-71
2024/01/25 12:57:29;;;;;;;18.65;2.67;;;;;;;8.19;100.00;102423.56;6310862;28;20522;-71
2024/01/25 13:00:32;;;;;;;19.58;3.00;;;;;;;8.41;100.00;102419.72;6303835;28;20051;-72
2024/01/25 13:03:34;;;;;;;13.63;2.40;;;;;;;8.28;100.00;102420.78;6304380;28;20083;-72
2024/01/25 13:06:36;;;;;;;15.70;3.53;;;;;;;8.57;100.00;102422.91;6306677;28;20183;-71
2024/01/25 13:09:37;;;;;;;28.48;4.20;;;;;;;8.25;100.00;102424.28;6307298;28;20131;-71
2024/01/25 13:12:38;;;;;;;28.83;3.28;;;;;;;8.13;100.00;102412.28;6310977;28;20087;-70
2024/01/25 13:15:41;;;;;;;18.80;2.60;;;;;;;8.19;100.00;102406.06;6311940;28;20051;-71
2024/01/25 13:18:43;;;;;;;20.10;4.10;;;;;;;8.16;100.00;102411.34;6308780;28;20049;-72
2024/01/25 13:21:45;;;;;;;22.27;3.30;;;;;;;7.74;100.00;102397.19;6301079;28;20333;-72
2024/01/25 13:24:46;;;;;;;25.00;3.30;;;;;;;7.85;100.00;102396.13;6300850;28;20060;-72
2024/01/25 13:27:47;;;;;;;17.58;3.15;;;;;;;8.02;100.00;102393.25;6306182;28;20067;-72
2024/01/25 13:30:50;;;;;;;27.90;2.83;;;;;;;8.14;100.00;102389.59;6311540;28;20052;-72
2024/01/25 13:33:51;;;;;;;26.23;3.92;;;;;;;8.20;100.00;102386.84;6303776;28;20344;-70
2024/01/25 13:36:53;;;;;;;20.73;3.63;;;;;;;8.29;100.00;102372.72;6300720;28;20049;-71
2024/01/25 13:39:54;;;;;;;19.42;4.03;;;;;;;8.29;100.00;102367.50;6300645;28;20048;-71
2024/01/25 13:42:55;;;;;;;21.33;3.42;;;;;;;8.14;100.00;102363.41;6300815;28;20051;-71
2024/01/25 13:45:58;;;;;;;18.17;3.60;;;;;;;8.15;100.00;102375.59;6300258;28;20060;-70
2024/01/25 13:48:59;;;;;;;20.23;2.60;;;;;;;8.13;100.00;102370.41;6300204;28;20048;-71
2024/01/25 13:52:02;;;;;;;22.70;2.53;;;;;;;8.25;100.00;102379.78;6300456;28;20049;-71
2024/01/25 13:55:05;;;;;;;31.30;3.83;;;;;;;8.07;100.00;102380.09;6300463;28;20340;-70